Time;durP1;ratioP1;P1;durP2;ratioP2;P2;SDS_P1;SDS_P2;PMS_P1;PMS_P2;Temp;Humidity;BMP_temperature;BMP_pressure;BME280_temperature;BME280_humidity;BME280_pressure;Samples;Min_cycle;Max_cycle;Signal;HPM_P1;HPM_P2
2021/07/02 00:00:48;;;;;;;32.83;18.53;;;;;;;15.64;87.23;100707.38;5078421;28;20228;-79
2021/07/02 00:03:14;;;;;;;36.40;17.50;;;;;;;15.64;87.00;100710.06;5077912;28;20302;-79
2021/07/02 00:05:42;;;;;;;34.07;16.97;;;;;;;15.63;87.28;100703.00;5077396;28;20213;-79
2021/07/02 00:08:09;;;;;;;34.90;16.80;;;;;;;15.65;87.20;100708.25;5076912;28;20205;-78
2021/07/02 00:10:35;;;;;;;35.70;17.13;;;;;;;15.63;86.96;100703.00;5078411;28;20250;-79
2021/07/02 00:13:02;;;;;;;25.30;16.70;;;;;;;15.62;87.30;100696.78;5078599;28;20215;-79
2021/07/02 00:15:28;;;;;;;34.27;17.77;;;;;;;15.61;87.15;100700.44;5078349;28;20295;-79
2021/07/02 00:17:55;;;;;;;31.53;17.33;;;;;;;15.62;87.21;100701.28;5078535;28;20273;-78
2021/07/02 00:20:21;;;;;;;32.07;16.30;;;;;;;15.63;86.94;100705.69;5075739;28;20230;-78
2021/07/02 00:22:49;;;;;;;31.87;16.97;;;;;;;15.63;87.00;100711.91;5075698;28;20209;-77
2021/07/02 00:25:16;;;;;;;25.73;16.00;;;;;;;15.62;87.23;100706.66;5075777;28;20716;-77
2021/07/02 00:27:42;;;;;;;29.33;16.43;;;;;;;15.62;87.25;100703.97;5094016;28;20214;-78
2021/07/02 00:30:10;;;;;;;27.23;16.70;;;;;;;15.63;87.22;100703.00;5081955;28;20222;-78
2021/07/02 00:32:36;;;;;;;31.80;17.77;;;;;;;15.63;87.15;100695.81;5075157;28;20201;-78
2021/07/02 00:35:03;;;;;;;32.30;17.23;;;;;;;15.63;87.18;100703.84;5075139;28;20207;-78
2021/07/02 00:37:30;;;;;;;22.67;15.10;;;;;;;15.65;86.86;100705.56;5074700;28;20605;-78
2021/07/02 00:39:58;;;;;;;35.77;17.00;;;;;;;15.63;86.94;100693.13;5075152;28;20240;-78
2021/07/02 00:42:24;;;;;;;30.13;16.43;;;;;;;15.65;87.20;100694.81;5075989;28;20227;-77
2021/07/02 00:44:51;;;;;;;36.40;15.70;;;;;;;15.66;87.31;100699.22;5097040;28;20575;-78
2021/07/02 00:47:19;;;;;;;27.27;15.20;;;;;;;15.65;87.25;100701.03;5096849;28;20644;-77
2021/07/02 00:49:46;;;;;;;29.73;15.93;;;;;;;15.65;87.28;100695.69;5098105;28;20225;-78
2021/07/02 00:52:14;;;;;;;26.87;15.80;;;;;;;15.64;86.96;100696.66;5097234;28;20200;-78
2021/07/02 00:54:42;;;;;;;26.83;14.87;;;;;;;15.65;87.11;100694.81;5097624;28;20208;-78
2021/07/02 00:57:11;;;;;;;31.33;15.50;;;;;;;15.65;86.91;100698.34;5097099;28;20201;-78
2021/07/02 00:59:38;;;;;;;27.13;14.70;;;;;;;15.64;87.05;100691.28;5094448;28;20319;-78
2021/07/02 01:02:05;;;;;;;25.97;14.30;;;;;;;15.64;87.19;100693.97;5067231;28;20255;-78
2021/07/02 01:04:31;;;;;;;27.17;14.87;;;;;;;15.64;87.37;100688.59;5069048;28;20209;-78
2021/07/02 01:07:00;;;;;;;26.03;14.67;;;;;;;15.63;86.95;100677.00;5067607;28;20194;-78
2021/07/02 01:09:27;;;;;;;25.27;14.80;;;;;;;15.65;86.85;100690.31;5074326;28;20291;-77
2021/07/02 01:11:54;;;;;;;21.90;14.57;;;;;;;15.65;87.16;100678.72;5074891;28;20204;-78
2021/07/02 01:14:22;;;;;;;23.97;15.57;;;;;;;15.66;86.99;100680.41;5075091;28;20548;-78
2021/07/02 01:16:49;;;;;;;31.53;15.53;;;;;;;15.65;87.20;100684.09;5075142;28;20207;-78
2021/07/02 01:19:16;;;;;;;23.90;15.00;;;;;;;15.65;86.98;100684.94;5078300;28;20194;-78
2021/07/02 01:21:44;;;;;;;28.33;16.90;;;;;;;15.65;86.91;100676.88;5075223;28;20236;-78
2021/07/02 01:24:11;;;;;;;28.87;15.73;;;;;;;15.64;86.74;100675.19;5066770;28;20205;-77
2021/07/02 01:26:38;;;;;;;24.53;14.60;;;;;;;15.65;86.79;100670.66;5067838;28;20222;-79
2021/07/02 01:29:04;;;;;;;24.40;14.93;;;;;;;15.65;86.79;100676.88;5075323;28;20201;-78
2021/07/02 01:31:31;;;;;;;27.00;14.33;;;;;;;15.65;86.76;100676.88;5092149;28;20229;-78
2021/07/02 01:33:57;;;;;;;26.17;14.17;;;;;;;15.66;86.83;100678.59;5077435;28;20207;-79
2021/07/02 01:36:26;;;;;;;21.20;13.73;;;;;;;15.67;86.89;100676.75;5075362;28;20206;-78
2021/07/02 01:49:00;;;;;;;21.60;14.50;;;;;;;15.63;86.58;100685.06;5071910;28;20226;-77
2021/07/02 01:51:26;;;;;;;21.03;13.93;;;;;;;15.65;86.79;100694.81;5071920;28;20688;-77
2021/07/02 01:53:53;;;;;;;25.73;15.00;;;;;;;15.65;86.72;100689.44;5071629;28;20223;-76
2021/07/02 01:56:19;;;;;;;24.33;14.97;;;;;;;15.65;86.72;100690.31;5082608;28;20200;-76
2021/07/02 01:58:46;;;;;;;23.37;14.63;;;;;;;15.66;86.87;100691.16;5079703;28;20205;-77
2021/07/02 02:01:12;;;;;;;22.90;14.10;;;;;;;15.66;86.89;100693.84;5071622;28;20236;-76
2021/07/02 02:03:39;;;;;;;25.27;13.97;;;;;;;15.67;86.81;100700.91;5071841;28;20209;-76
2021/07/02 02:06:07;;;;;;;18.90;13.67;;;;;;;15.68;86.53;100694.56;5071604;28;20216;-77
2021/07/02 02:08:33;;;;;;;26.50;14.30;;;;;;;15.68;86.66;100689.19;5071856;28;20216;-77
2021/07/02 02:11:00;;;;;;;25.87;14.00;;;;;;;15.67;86.40;100691.03;5071852;28;20221;-77
2021/07/02 02:13:26;;;;;;;28.07;13.40;;;;;;;15.68;86.50;100689.19;5076276;28;20201;-78
2021/07/02 02:15:53;;;;;;;25.03;14.50;;;;;;;15.69;86.68;100691.75;5077372;28;20212;-77
2021/07/02 02:18:21;;;;;;;22.33;13.60;;;;;;;15.69;86.39;100690.91;5085838;28;20208;-77
2021/07/02 02:20:48;;;;;;;17.50;13.17;;;;;;;15.69;86.47;100688.22;5090931;28;20236;-77
2021/07/02 02:23:16;;;;;;;23.87;14.07;;;;;;;15.69;86.56;100694.44;5084007;28;20198;-77
2021/07/02 02:25:42;;;;;;;22.17;13.87;;;;;;;15.68;86.23;100690.06;5076555;28;20296;-78
2021/07/02 02:28:09;;;;;;;23.97;14.07;;;;;;;15.68;86.50;100700.78;5078152;28;20205;-78
2021/07/02 02:30:36;;;;;;;22.13;14.40;;;;;;;15.68;86.33;100695.41;5077172;28;20245;-78
2021/07/02 02:33:04;;;;;;;27.37;14.40;;;;;;;15.67;86.26;100688.34;5078327;28;20217;-76
2021/07/02 02:35:31;;;;;;;25.17;14.57;;;;;;;15.67;86.05;100695.56;5077152;28;20209;-77
2021/07/02 02:37:58;;;;;;;21.73;14.47;;;;;;;15.67;86.08;100704.44;5076756;28;20200;-78
2021/07/02 02:40:26;;;;;;;25.63;13.57;;;;;;;15.67;86.25;100699.09;5078983;28;20240;-78
2021/07/02 02:42:52;;;;;;;24.33;14.40;;;;;;;15.67;86.16;100701.78;5079739;28;20328;-78
2021/07/02 02:45:19;;;;;;;22.77;14.23;;;;;;;15.68;85.99;100711.53;5080446;28;20215;-78
2021/07/02 02:47:45;;;;;;;21.60;14.70;;;;;;;15.69;86.17;100709.69;5075508;28;20574;-77
2021/07/02 02:50:12;;;;;;;28.13;15.07;;;;;;;15.69;86.26;100723.13;5080437;28;20229;-78
2021/07/02 02:52:38;;;;;;;26.27;13.70;;;;;;;15.70;85.95;100711.41;5073748;28;20322;-77
2021/07/02 02:55:06;;;;;;;22.47;14.20;;;;;;;15.69;86.17;100712.38;5079360;28;20212;-78
2021/07/02 02:57:33;;;;;;;25.87;14.30;;;;;;;15.72;86.04;100717.50;5077476;28;20216;-77
2021/07/02 03:00:00;;;;;;;22.90;14.67;;;;;;;15.70;86.11;100723.00;5077474;28;20221;-76
2021/07/02 03:02:26;;;;;;;24.23;14.23;;;;;;;15.71;85.93;100727.38;5077834;28;20226;-78
2021/07/02 03:04:54;;;;;;;25.97;15.63;;;;;;;15.72;86.27;100728.25;5090031;28;20681;-77
2021/07/02 03:07:21;;;;;;;22.77;15.77;;;;;;;15.72;86.05;100721.03;5098360;28;20799;-77
2021/07/02 03:09:47;;;;;;;27.47;16.63;;;;;;;15.73;86.42;100730.81;5094375;28;20634;-77
2021/07/02 03:12:14;;;;;;;27.13;15.73;;;;;;;15.73;86.31;100736.19;5075044;28;20201;-77
2021/07/02 03:14:42;;;;;;;34.90;17.03;;;;;;;15.73;86.25;100735.31;5075551;28;20208;-78
2021/07/02 03:17:09;;;;;;;36.80;17.03;;;;;;;15.74;86.08;100734.34;5075352;28;20208;-77
2021/07/02 03:19:35;;;;;;;32.73;16.77;;;;;;;15.74;86.26;100737.03;5074964;28;20206;-77
2021/07/02 03:22:02;;;;;;;29.27;16.47;;;;;;;15.75;86.31;100744.09;5072070;28;20213;-76
2021/07/02 03:24:28;;;;;;;30.90;17.93;;;;;;;15.74;85.81;100747.78;5073287;28;20202;-77
2021/07/02 03:26:55;;;;;;;40.10;18.10;;;;;;;15.74;85.92;100745.09;5074930;28;20210;-77
2021/07/02 03:29:21;;;;;;;34.50;17.97;;;;;;;15.74;86.15;100748.63;5076204;28;20205;-78
2021/07/02 03:31:49;;;;;;;37.83;18.80;;;;;;;15.73;85.81;100743.38;5079064;28;20209;-77
2021/07/02 03:34:16;;;;;;;34.40;18.93;;;;;;;15.72;85.83;100745.22;5076357;28;20205;-77
2021/07/02 03:36:42;;;;;;;41.23;20.40;;;;;;;15.70;86.04;100744.47;5076766;28;20209;-77
2021/07/02 03:39:09;;;;;;;38.83;18.67;;;;;;;15.70;86.18;100752.53;5076459;28;20205;-77
2021/07/02 03:41:35;;;;;;;40.57;20.53;;;;;;;15.70;86.11;100759.72;5075840;28;20232;-77
2021/07/02 03:44:02;;;;;;;35.77;18.87;;;;;;;15.69;86.14;100761.56;5076122;28;20655;-77
2021/07/02 03:46:29;;;;;;;37.10;20.13;;;;;;;15.70;86.04;100762.41;5075578;28;20662;-77
2021/07/02 03:48:57;;;;;;;37.83;20.20;;;;;;;15.70;86.05;100774.00;5074977;28;20220;-77
2021/07/02 03:51:23;;;;;;;33.70;20.20;;;;;;;15.68;85.80;100770.59;5074906;28;20221;-78
2021/07/02 03:53:50;;;;;;;37.83;19.80;;;;;;;15.69;85.98;100760.72;5076656;28;20201;-78
2021/07/02 03:56:17;;;;;;;34.53;20.33;;;;;;;15.68;85.99;100767.06;5077864;28;20197;-78
2021/07/02 03:58:43;;;;;;;47.50;21.23;;;;;;;15.68;85.79;100765.22;5076690;28;20201;-78
2021/07/02 04:01:10;;;;;;;35.30;19.93;;;;;;;15.68;85.78;100767.06;5074911;28;20221;-77
2021/07/02 04:03:36;;;;;;;39.53;19.67;;;;;;;15.67;85.78;100762.66;5072529;28;20202;-78
2021/07/02 04:06:04;;;;;;;38.90;19.40;;;;;;;15.65;85.86;100765.47;5071133;28;20210;-78
2021/07/02 04:08:31;;;;;;;39.67;20.83;;;;;;;15.65;86.07;100770.00;5065903;28;20213;-78
2021/07/02 04:10:58;;;;;;;38.67;20.67;;;;;;;15.65;85.80;100776.22;5074249;28;20723;-78
2021/07/02 04:13:24;;;;;;;41.17;20.00;;;;;;;15.63;86.09;100776.34;5067147;28;20719;-78
2021/07/02 04:15:53;;;;;;;38.40;20.87;;;;;;;15.65;86.10;100775.38;5073197;28;20201;-78
2021/07/02 04:18:19;;;;;;;34.90;20.03;;;;;;;15.65;85.84;100780.72;5064645;28;20210;-77
2021/07/02 04:20:46;;;;;;;40.10;18.77;;;;;;;15.66;85.96;100788.66;5071409;28;20217;-77
2021/07/02 04:23:14;;;;;;;31.70;18.77;;;;;;;15.68;86.05;100791.22;5067142;28;20220;-78
2021/07/02 04:25:41;;;;;;;39.83;19.70;;;;;;;15.67;85.64;100795.75;5069331;28;20204;-77
2021/07/02 04:28:07;;;;;;;33.53;19.30;;;;;;;15.69;85.56;100801.00;5073269;28;20668;-77
2021/07/02 04:30:34;;;;;;;31.40;18.30;;;;;;;15.68;86.03;100796.59;5071574;28;20233;-77
2021/07/02 04:33:01;;;;;;;34.57;18.73;;;;;;;15.69;85.79;100798.31;5066188;28;20193;-77
2021/07/02 04:35:27;;;;;;;31.80;18.97;;;;;;;15.68;85.49;100793.91;5071712;28;20208;-78
2021/07/02 04:37:54;;;;;;;35.77;19.37;;;;;;;15.68;85.79;100793.91;5069895;28;20216;-78
2021/07/02 04:40:22;;;;;;;35.37;18.87;;;;;;;15.71;85.72;100799.88;5071033;28;20227;-77
2021/07/02 04:42:48;;;;;;;37.50;19.10;;;;;;;15.73;85.76;100789.03;5068569;28;20226;-78
2021/07/02 04:45:15;;;;;;;35.40;19.27;;;;;;;15.74;85.69;100801.47;5070022;28;20204;-78
2021/07/02 04:47:42;;;;;;;39.23;19.07;;;;;;;15.74;85.51;100802.31;5066507;28;20258;-78
2021/07/02 04:50:10;;;;;;;37.63;19.93;;;;;;;15.75;85.74;100797.81;5069742;28;20581;-78
2021/07/02 04:52:37;;;;;;;36.30;19.70;;;;;;;15.76;85.70;100800.38;5073155;28;20212;-78
2021/07/02 04:55:04;;;;;;;43.27;20.13;;;;;;;15.77;85.50;100790.44;5078446;28;20212;-78
2021/07/02 04:57:32;;;;;;;34.20;19.90;;;;;;;15.79;85.45;100794.72;5084861;28;20288;-79
2021/07/02 05:00:00;;;;;;;37.13;19.97;;;;;;;15.78;85.44;100793.00;5074720;28;20574;-79
2021/07/02 05:02:27;;;;;;;33.53;19.00;;;;;;;15.78;85.36;100798.38;5076098;28;20232;-78
2021/07/02 05:04:54;;;;;;;37.73;19.07;;;;;;;15.78;85.47;100802.91;5068842;28;20201;-78
2021/07/02 05:07:21;;;;;;;33.57;18.73;;;;;;;15.77;85.20;100804.72;5070513;28;20314;-78
2021/07/02 05:09:47;;;;;;;38.43;18.53;;;;;;;15.78;85.26;100805.59;5064769;28;20240;-78
2021/07/02 05:12:14;;;;;;;36.47;19.10;;;;;;;15.76;84.86;100811.13;5073375;28;20421;-78
2021/07/02 05:14:42;;;;;;;27.90;17.20;;;;;;;15.77;84.88;100814.63;5058240;28;20205;-79
2021/07/02 05:17:08;;;;;;;33.00;18.90;;;;;;;15.76;84.75;100811.13;5061419;28;20202;-78
2021/07/02 05:19:35;;;;;;;32.97;18.43;;;;;;;15.77;84.70;100814.63;5059469;28;20198;-78
2021/07/02 05:22:01;;;;;;;34.83;18.57;;;;;;;15.77;85.11;100820.00;5064562;28;20225;-78
2021/07/02 05:24:28;;;;;;;31.00;19.30;;;;;;;15.77;84.71;100812.78;5054305;28;20213;-78
2021/07/02 05:26:54;;;;;;;33.97;19.63;;;;;;;15.79;84.72;100823.41;5063688;28;20206;-77
2021/07/02 05:29:21;;;;;;;35.40;18.27;;;;;;;15.79;84.67;100826.94;5059488;28;20292;-78
2021/07/02 05:31:49;;;;;;;29.87;17.63;;;;;;;15.79;84.42;100826.94;5062895;28;20679;-78
2021/07/02 05:34:15;;;;;;;29.17;17.63;;;;;;;15.80;84.35;100822.44;5060035;28;20205;-76
2021/07/02 05:36:42;;;;;;;30.53;18.27;;;;;;;15.81;84.50;100829.50;5063588;28;20200;-77
2021/07/02 05:39:08;;;;;;;29.30;17.40;;;;;;;15.82;84.54;100832.06;5066273;28;20202;-78
2021/07/02 05:41:35;;;;;;;26.53;17.63;;;;;;;15.84;84.40;100838.16;5055937;28;20226;-76
2021/07/02 05:44:01;;;;;;;33.53;17.90;;;;;;;15.85;84.57;100836.34;5059662;28;20224;-78
2021/07/02 05:46:29;;;;;;;26.93;16.77;;;;;;;15.89;84.35;100843.16;5062650;28;20648;-78
2021/07/02 05:48:57;;;;;;;29.63;16.30;;;;;;;15.89;84.19;100840.50;5062912;28;20201;-79
2021/07/02 05:51:24;;;;;;;30.43;16.13;;;;;;;15.88;83.99;100836.94;5057234;28;20225;-78
2021/07/02 05:53:50;;;;;;;29.67;16.53;;;;;;;15.90;84.11;100843.06;5051791;28;20674;-77
2021/07/02 05:56:17;;;;;;;36.07;16.60;;;;;;;15.91;83.89;100849.28;5060983;28;20224;-78
2021/07/02 05:58:43;;;;;;;28.57;16.50;;;;;;;15.90;83.60;100848.41;5067952;28;20293;-77
2021/07/02 06:01:10;;;;;;;31.60;16.87;;;;;;;15.91;83.69;100847.44;5066329;28;20222;-77
2021/07/02 06:03:37;;;;;;;30.33;16.20;;;;;;;15.93;83.81;100848.19;5061890;28;20246;-78
2021/07/02 06:06:05;;;;;;;27.30;15.77;;;;;;;15.95;83.40;100856.94;5059427;28;20197;-77
2021/07/02 06:08:31;;;;;;;28.47;14.93;;;;;;;15.95;83.57;100851.56;5065914;28;20298;-77
2021/07/02 06:10:59;;;;;;;27.70;15.03;;;;;;;15.97;83.20;100857.66;5060557;28;20221;-78
2021/07/02 06:13:26;;;;;;;21.30;14.07;;;;;;;15.95;83.34;100856.94;5062131;28;20243;-77
2021/07/02 06:15:52;;;;;;;19.33;13.37;;;;;;;15.93;82.98;100861.59;5067901;28;20203;-77
2021/07/02 06:18:18;;;;;;;23.77;13.77;;;;;;;15.92;nan;100867.94;5062551;28;20575;-78
2021/07/02 06:20:45;;;;;;;21.70;13.90;;;;;;;15.91;82.87;100860.03;5062849;28;20238;-78
2021/07/02 06:23:13;;;;;;;25.83;15.13;;;;;;;15.90;82.73;100864.53;5058521;28;20227;-77
2021/07/02 06:25:40;;;;;;;24.77;14.73;;;;;;;15.91;82.77;100860.88;5068637;28;20211;-78
2021/07/02 06:28:06;;;;;;;25.10;15.07;;;;;;;15.93;82.69;100860.75;5068541;28;20201;-77
2021/07/02 06:30:33;;;;;;;21.33;14.97;;;;;;;15.95;82.54;100867.69;5068883;28;20227;-77
2021/07/02 06:33:00;;;;;;;25.50;15.27;;;;;;;16.00;82.75;100866.44;5063309;28;20206;-78
2021/07/02 06:35:26;;;;;;;21.10;15.10;;;;;;;16.03;82.37;100871.56;5063963;28;20209;-77
2021/07/02 06:37:53;;;;;;;22.07;14.30;;;;;;;16.03;82.36;100875.13;5069566;28;20223;-77
2021/07/02 06:40:21;;;;;;;22.27;14.17;;;;;;;16.05;82.10;100877.69;5070326;28;20620;-77
2021/07/02 06:42:48;;;;;;;19.73;14.23;;;;;;;16.07;82.17;100873.88;5067091;28;20220;-77
2021/07/02 06:45:16;;;;;;;19.63;15.00;;;;;;;16.06;82.15;100866.81;5064603;28;20318;-77
2021/07/02 06:47:57;;;;;;;21.87;14.03;;;;;;;16.08;81.68;100870.22;5068364;28;20201;-78
2021/07/02 06:50:24;;;;;;;21.27;14.20;;;;;;;16.10;81.79;100860.22;5068739;28;20591;-77
2021/07/02 06:52:51;;;;;;;20.77;15.27;;;;;;;16.13;81.58;100867.13;5062548;28;20207;-77
2021/07/02 06:55:18;;;;;;;26.37;15.43;;;;;;;16.16;81.68;100866.88;5073470;28;20578;-77
2021/07/02 06:57:46;;;;;;;26.80;15.70;;;;;;;16.16;81.25;100865.06;5067342;28;20209;-77
2021/07/02 07:00:16;;;;;;;22.47;14.77;;;;;;;16.17;81.20;100864.06;5073901;28;20684;-77
2021/07/02 07:02:43;;;;;;;24.00;15.07;;;;;;;16.18;81.05;100865.78;5068339;28;20233;-78
2021/07/02 07:05:10;;;;;;;19.87;14.67;;;;;;;16.20;80.84;100868.34;5073522;28;20659;-77
2021/07/02 07:07:37;;;;;;;19.77;14.37;;;;;;;16.21;80.97;100875.44;5077960;28;20687;-77
2021/07/02 07:10:04;;;;;;;22.17;14.50;;;;;;;16.22;80.89;100869.94;5068701;28;20222;-77
2021/07/02 07:12:31;;;;;;;23.40;14.83;;;;;;;16.24;81.04;100876.03;5071200;28;20206;-76
2021/07/02 07:14:59;;;;;;;19.13;13.63;;;;;;;16.27;80.82;100878.47;5069708;28;20206;-78
2021/07/02 07:17:25;;;;;;;21.93;14.40;;;;;;;16.29;80.66;100878.34;5064939;28;20259;-78
2021/07/02 07:19:52;;;;;;;22.60;13.87;;;;;;;16.31;80.62;100870.97;5061541;28;20218;-77
2021/07/02 07:22:19;;;;;;;20.07;13.93;;;;;;;16.31;80.46;100879.88;5067249;28;20652;-78
2021/07/02 07:24:45;;;;;;;18.63;12.40;;;;;;;16.31;80.32;100877.19;5063036;28;20288;-77
2021/07/02 07:27:12;;;;;;;19.77;12.17;;;;;;;16.31;80.21;100870.97;5063134;28;20205;-77
2021/07/02 07:29:39;;;;;;;18.77;11.83;;;;;;;16.31;79.82;100876.34;5073839;28;20209;-77
2021/07/02 07:32:08;;;;;;;26.57;12.87;;;;;;;16.29;79.73;100884.56;5059664;28;20634;-78
2021/07/02 07:34:40;;;;;;;16.70;11.87;;;;;;;16.32;79.81;100883.44;5064523;28;20199;-78
2021/07/02 07:37:09;;;;;;;15.90;10.90;;;;;;;16.31;79.46;100887.94;5067484;28;20205;-77
2021/07/02 07:39:36;;;;;;;16.17;11.67;;;;;;;16.31;79.52;100887.94;5053771;28;20265;-77
2021/07/02 07:42:03;;;;;;;17.57;11.57;;;;;;;16.33;79.33;100885.13;5053743;28;20213;-77
2021/07/02 07:44:30;;;;;;;17.00;11.10;;;;;;;16.34;79.47;100886.84;5067214;28;20236;-77
2021/07/02 07:46:57;;;;;;;17.63;12.63;;;;;;;16.35;79.17;100887.69;5054279;28;20283;-77
2021/07/02 07:49:25;;;;;;;20.47;11.17;;;;;;;16.38;79.07;100892.81;5067043;28;20209;-78
2021/07/02 07:51:56;;;;;;;18.57;11.60;;;;;;;16.37;79.09;100889.28;5053431;28;20198;-78
2021/07/02 07:54:23;;;;;;;17.87;11.77;;;;;;;16.37;78.88;100889.28;5066963;28;20207;-78
2021/07/02 07:56:53;;;;;;;21.87;12.53;;;;;;;16.40;78.93;100885.50;5065849;28;20210;-78
2021/07/02 07:59:20;;;;;;;18.00;11.30;;;;;;;16.42;78.86;100889.75;5071053;28;23240;-78
2021/07/02 08:01:47;;;;;;;20.43;12.47;;;;;;;16.45;79.02;100900.25;5072705;28;20215;-77
2021/07/02 08:04:15;;;;;;;19.87;11.33;;;;;;;16.51;78.81;100896.19;5077290;28;20220;-77
2021/07/02 08:06:43;;;;;;;13.90;10.73;;;;;;;16.53;78.64;100902.28;5066589;28;20222;-78
2021/07/02 08:09:10;;;;;;;14.53;10.03;;;;;;;16.54;78.27;100904.84;5073317;28;20662;-77
2021/07/02 08:11:37;;;;;;;11.47;9.73;;;;;;;16.56;78.37;100893.97;5068586;28;20762;-78
2021/07/02 08:14:04;;;;;;;14.40;10.50;;;;;;;16.58;78.04;100900.94;5066829;28;20277;-79
2021/07/02 08:16:31;;;;;;;16.37;9.80;;;;;;;16.61;77.86;100895.31;5078374;28;20696;-78
2021/07/02 08:18:57;;;;;;;14.27;10.07;;;;;;;16.65;77.88;100887.84;5064470;28;20214;-78
2021/07/02 08:21:25;;;;;;;16.37;10.60;;;;;;;16.71;77.71;100883.78;5076697;28;20227;-78
2021/07/02 08:23:53;;;;;;;15.43;10.37;;;;;;;16.80;77.76;100893.75;5068206;28;20223;-77
2021/07/02 08:26:20;;;;;;;18.40;10.37;;;;;;;16.88;77.80;100889.41;5063430;28;20577;-78
2021/07/02 08:31:31;;;;;;;15.73;10.77;;;;;;;17.11;77.38;100892.81;5069417;28;20273;-78
2021/07/02 08:33:58;;;;;;;13.00;10.43;;;;;;;17.20;77.12;100902.78;5073383;28;20646;-77
2021/07/02 08:36:24;;;;;;;12.83;9.33;;;;;;;17.29;76.76;100890.38;5073968;28;20203;-78
2021/07/02 08:38:52;;;;;;;13.97;9.80;;;;;;;17.34;76.16;100896.22;5065560;28;20207;-78
2021/07/02 08:41:20;;;;;;;13.43;9.50;;;;;;;17.40;75.73;100897.47;5067315;28;20233;-78
2021/07/02 08:43:48;;;;;;;12.43;8.93;;;;;;;17.46;75.30;100897.81;5072172;28;20235;-78
2021/07/02 08:46:15;;;;;;;12.17;9.47;;;;;;;17.52;74.99;100897.28;5067216;28;20219;-78
2021/07/02 08:48:45;;;;;;;11.13;8.20;;;;;;;17.60;74.70;100904.66;5073759;28;20819;-79
2021/07/02 08:51:12;;;;;;;12.67;9.27;;;;;;;17.69;74.30;100907.44;5073640;28;20231;-79
2021/07/02 08:53:40;;;;;;;12.53;8.87;;;;;;;17.75;73.97;100903.31;5073285;28;20207;-79
2021/07/02 08:56:08;;;;;;;14.73;9.90;;;;;;;17.84;73.74;100909.75;5064129;28;20212;-78
2021/07/02 08:58:36;;;;;;;12.93;8.83;;;;;;;17.89;73.28;100919.13;5069241;28;20210;-78
2021/07/02 09:01:07;;;;;;;12.17;8.77;;;;;;;17.93;72.75;100912.44;5066380;28;20251;-78
2021/07/02 09:03:36;;;;;;;12.70;9.23;;;;;;;17.98;72.44;100915.59;5070060;28;20580;-78
2021/07/02 09:06:16;;;;;;;14.97;9.37;;;;;;;18.07;72.33;100905.00;5073287;28;20206;-78
2021/07/02 09:08:58;;;;;;;10.77;9.10;;;;;;;18.17;72.30;100903.16;5073432;28;20201;-77
2021/07/02 09:11:27;;;;;;;13.30;9.20;;;;;;;18.26;71.63;100905.03;5071092;28;20230;-78
2021/07/02 09:13:55;;;;;;;14.47;9.10;;;;;;;18.33;71.44;100904.28;5064816;28;20291;-77
2021/07/02 09:16:23;;;;;;;12.23;8.87;;;;;;;18.45;71.27;100899.59;5068252;28;20207;-78
2021/07/02 09:18:50;;;;;;;9.47;8.47;;;;;;;18.55;70.49;100905.03;5065878;28;20234;-78
2021/07/02 09:21:23;;;;;;;13.27;8.20;;;;;;;18.66;70.46;100911.16;5070083;28;20234;-78
2021/07/02 09:23:50;;;;;;;12.90;8.43;;;;;;;18.78;69.76;100902.91;5067392;28;20236;-78
2021/07/02 09:26:34;;;;;;;12.10;8.17;;;;;;;18.86;69.40;100908.44;5073762;28;20207;-78
2021/07/02 09:29:21;;;;;;;11.00;8.27;;;;;;;18.92;68.88;100903.31;5072786;28;20197;-79
2021/07/02 09:31:57;;;;;;;10.67;8.53;;;;;;;18.98;68.64;100913.53;5072177;28;20208;-78
2021/07/02 09:34:24;;;;;;;11.07;7.80;;;;;;;19.04;68.15;100910.25;5072673;28;20190;-78
2021/07/02 09:36:51;;;;;;;12.57;8.40;;;;;;;19.10;68.02;100919.63;5070716;28;20243;-78
2021/07/02 09:39:30;;;;;;;9.20;7.77;;;;;;;19.17;67.90;100914.50;5061561;28;20201;-78
2021/07/02 09:41:58;;;;;;;9.53;7.83;;;;;;;19.22;67.43;100918.44;5067010;28;20204;-78
2021/07/02 09:44:25;;;;;;;13.23;8.30;;;;;;;19.30;67.27;100920.44;5063695;28;20224;-78
2021/07/02 09:46:51;;;;;;;12.47;8.17;;;;;;;19.36;67.40;100915.25;5073563;28;20203;-78
2021/07/02 09:49:25;;;;;;;12.80;8.63;;;;;;;19.45;67.37;100921.66;5068627;28;20204;-79
2021/07/02 09:51:52;;;;;;;12.60;8.60;;;;;;;19.54;66.93;100928.88;5064072;28;20649;-78
2021/07/02 09:54:19;;;;;;;14.60;8.57;;;;;;;19.63;67.13;100929.88;5084065;28;20216;-79
2021/07/02 09:56:46;;;;;;;11.80;7.83;;;;;;;19.70;66.14;100925.56;5065679;28;20580;-78
2021/07/02 09:59:17;;;;;;;14.10;8.20;;;;;;;19.75;65.98;100926.81;5073394;28;20577;-79
2021/07/02 10:01:43;;;;;;;10.10;7.67;;;;;;;19.83;65.83;100923.38;5073774;28;20224;-80
2021/07/02 10:04:11;;;;;;;11.77;8.23;;;;;;;19.95;65.85;100927.56;5071482;28;20230;-79
2021/07/02 10:06:37;;;;;;;12.23;8.47;;;;;;;20.04;65.33;100925.81;5071276;28;20215;-79
2021/07/02 10:09:06;;;;;;;15.10;8.13;;;;;;;20.10;64.67;100933.31;5058151;28;20202;-79
2021/07/02 10:11:35;;;;;;;10.77;7.87;;;;;;;20.14;64.51;100926.59;5064636;28;20231;-79
2021/07/02 10:14:02;;;;;;;10.13;7.93;;;;;;;20.18;64.32;100935.25;5073498;28;20205;-79
2021/07/02 10:16:31;;;;;;;11.27;8.00;;;;;;;20.23;64.33;100935.66;5071050;28;20577;-80
2021/07/02 10:19:01;;;;;;;10.17;7.50;;;;;;;20.26;63.52;100929.94;5066917;28;20207;-79
2021/07/02 10:21:29;;;;;;;10.27;8.37;;;;;;;20.22;63.33;100934.81;5068500;28;20233;-80
2021/07/02 10:23:57;;;;;;;11.07;7.83;;;;;;;20.16;62.99;100938.13;5060111;28;20539;-80
2021/07/02 10:26:28;;;;;;;12.77;8.23;;;;;;;20.13;63.38;100945.66;5070291;28;20211;-78
2021/07/02 10:28:54;;;;;;;9.03;7.27;;;;;;;20.11;63.79;100938.56;5072033;28;20200;-79
2021/07/02 10:31:21;;;;;;;10.00;6.90;;;;;;;20.10;64.08;100941.41;5066885;28;20253;-79
2021/07/02 10:33:50;;;;;;;10.53;7.10;;;;;;;20.15;64.34;100941.81;5066413;28;20575;-79
2021/07/02 10:36:19;;;;;;;12.27;8.40;;;;;;;20.19;64.20;100947.78;5070728;28;20204;-79
2021/07/02 10:38:48;;;;;;;8.73;6.87;;;;;;;20.20;63.98;100941.38;5068694;28;20208;-78
2021/07/02 10:41:16;;;;;;;12.47;8.83;;;;;;;20.23;64.21;100941.06;5076877;28;20224;-79
2021/07/02 10:44:04;;;;;;;10.67;7.90;;;;;;;20.29;63.82;100940.44;5073612;28;20602;-79
2021/07/02 10:46:31;;;;;;;10.17;6.87;;;;;;;20.30;64.12;100961.09;5073533;28;20215;-79
2021/07/02 10:49:02;;;;;;;12.57;7.60;;;;;;;20.35;63.88;100954.22;5072872;28;20210;-79
2021/07/02 10:51:46;;;;;;;12.23;6.80;;;;;;;20.42;64.34;100944.50;5074148;28;20249;-79
2021/07/02 10:54:44;;;;;;;10.00;6.67;;;;;;;20.50;63.36;100954.56;5071020;28;20218;-81
2021/07/02 10:57:20;;;;;;;6.27;5.67;;;;;;;20.58;63.38;100941.13;5065318;28;20202;-78
2021/07/02 11:00:09;;;;;;;8.90;5.50;;;;;;;20.65;62.52;100946.75;5066022;28;20226;-79
2021/07/02 11:02:35;;;;;;;6.73;5.77;;;;;;;20.67;62.15;100950.16;5064616;28;20219;-80
2021/07/02 11:05:05;;;;;;;6.53;5.57;;;;;;;20.70;61.91;100950.72;5071808;28;20220;-80
2021/07/02 11:07:42;;;;;;;6.80;5.93;;;;;;;20.73;61.88;100950.41;5077241;28;20199;-78
2021/07/02 11:10:10;;;;;;;6.53;5.93;;;;;;;20.75;61.46;100955.66;5070843;28;20220;-80
2021/07/02 11:12:38;;;;;;;7.60;5.93;;;;;;;20.78;61.65;100948.06;5074774;28;20205;-79
2021/07/02 11:15:15;;;;;;;7.33;5.67;;;;;;;20.84;61.47;100946.59;5071122;28;20720;-80
2021/07/02 11:17:43;;;;;;;8.20;6.77;;;;;;;20.88;61.15;100950.69;5075172;28;20220;-81
2021/07/02 11:20:31;;;;;;;7.78;6.35;;;;;;;20.86;60.92;100946.44;5071754;28;20228;-79
2021/07/02 11:23:23;;;;;;;8.33;5.83;;;;;;;20.86;60.42;100957.28;5072370;28;20199;-79
2021/07/02 11:26:04;;;;;;;8.17;6.40;;;;;;;20.78;60.19;100953.47;5076716;28;20318;-79
2021/07/02 11:28:50;;;;;;;7.03;6.20;;;;;;;20.76;60.70;100960.06;5071176;28;20200;-80